createdAt,value
2023-05-19T00:02:00.328Z,70.80
2023-05-19T00:04:27.652Z,70.20
2023-05-19T00:06:54.577Z,69.80
2023-05-19T00:09:21.548Z,69.80
2023-05-19T00:11:48.511Z,69.50
2023-05-19T00:14:15.473Z,69.30
2023-05-19T00:16:42.861Z,69.20
2023-05-19T00:19:10.351Z,68.90
2023-05-19T00:21:40.470Z,68.90
2023-05-19T00:24:07.676Z,69.00
2023-05-19T00:26:34.686Z,69.10
2023-05-19T00:29:05.288Z,68.80
2023-05-19T00:31:34.086Z,68.50
2023-05-19T00:34:01.285Z,68.60
2023-05-19T00:36:28.691Z,68.90
2023-05-19T00:38:56.272Z,69.00
2023-05-19T00:41:23.143Z,69.20
2023-05-19T00:43:50.757Z,69.30
2023-05-19T00:46:18.545Z,69.50
2023-05-19T00:48:45.634Z,69.50
2023-05-19T00:51:14.818Z,69.50
2023-05-19T00:53:41.803Z,69.60
2023-05-19T00:56:08.868Z,69.70
2023-05-19T00:58:36.187Z,69.50
2023-05-19T01:01:05.282Z,69.50
2023-05-19T01:03:35.058Z,69.60
2023-05-19T01:06:05.264Z,69.80
2023-05-19T01:08:32.952Z,69.80
2023-05-19T01:10:59.940Z,70.00
2023-05-19T01:13:30.668Z,70.10
2023-05-19T01:16:07.076Z,70.10
2023-05-19T01:18:56.248Z,70.10
2023-05-19T01:21:31.447Z,70.00
2023-05-19T01:24:22.839Z,69.90
2023-05-19T01:27:09.281Z,69.90
2023-05-19T01:29:36.115Z,69.90
2023-05-19T01:32:04.653Z,70.00
2023-05-19T01:34:31.911Z,70.10
2023-05-19T01:37:00.849Z,70.20
2023-05-19T01:39:28.408Z,70.30
2023-05-19T01:41:55.924Z,70.40
2023-05-19T01:44:23.414Z,70.40
2023-05-19T01:46:50.947Z,70.50
2023-05-19T01:49:17.826Z,70.70
2023-05-19T01:51:45.359Z,70.60
2023-05-19T01:54:12.263Z,70.30
2023-05-19T01:56:39.343Z,70.20
2023-05-19T01:59:16.595Z,70.20
2023-05-19T02:01:43.480Z,70.10
2023-05-19T02:04:19.856Z,70.10
2023-05-19T02:06:53.632Z,70.10
2023-05-19T02:09:26.856Z,70.10
2023-05-19T02:12:05.343Z,70.10
2023-05-19T02:14:32.130Z,70.30
2023-05-19T02:17:00.715Z,70.00
2023-05-19T02:19:29.610Z,69.90
2023-05-19T02:21:56.700Z,69.80
2023-05-19T02:24:23.829Z,69.80
2023-05-19T02:26:52.172Z,69.40
2023-05-19T02:29:19.727Z,69.40
2023-05-19T02:31:46.738Z,69.40
2023-05-19T02:34:13.655Z,69.40
2023-05-19T02:36:43.129Z,69.50
2023-05-19T02:39:11.033Z,70.00
2023-05-19T02:41:38.395Z,70.40
2023-05-19T02:44:05.294Z,70.80
2023-05-19T02:46:32.805Z,71.30
2023-05-19T02:48:59.740Z,70.60
2023-05-19T02:51:27.845Z,70.40
2023-05-19T02:53:54.763Z,70.50
2023-05-19T02:56:21.806Z,70.70
2023-05-19T02:58:48.710Z,70.80
2023-05-19T03:01:16.602Z,70.50
2023-05-19T03:03:43.806Z,70.10
2023-05-19T03:06:10.764Z,70.30
2023-05-19T03:08:39.403Z,70.10
2023-05-19T03:11:08.448Z,70.00
2023-05-19T03:13:35.685Z,69.50
2023-05-19T03:16:03.510Z,69.20
2023-05-19T03:18:30.742Z,69.20
2023-05-19T03:20:57.702Z,69.60
2023-05-19T03:23:24.582Z,70.30
2023-05-19T03:25:51.567Z,70.80
2023-05-19T03:28:18.415Z,71.10
2023-05-19T03:30:45.513Z,71.10
2023-05-19T03:33:17.448Z,71.40
2023-05-19T03:35:45.641Z,70.70
2023-05-19T03:38:13.156Z,70.10
2023-05-19T03:40:46.174Z,70.40
2023-05-19T03:43:14.444Z,70.30
2023-05-19T03:45:46.772Z,70.10
2023-05-19T03:48:32.288Z,69.50
2023-05-19T03:51:17.595Z,69.10
2023-05-19T03:53:45.948Z,68.80
2023-05-19T03:56:14.009Z,68.80
2023-05-19T03:58:44.385Z,69.10
2023-05-19T04:01:11.685Z,69.30
2023-05-19T04:03:38.615Z,69.40
2023-05-19T04:06:05.565Z,69.40
2023-05-19T04:08:32.610Z,69.30
2023-05-19T04:10:59.516Z,68.80
2023-05-19T04:13:26.418Z,68.80
2023-05-19T04:15:53.336Z,68.80
2023-05-19T04:18:20.655Z,68.60
2023-05-19T04:20:47.772Z,68.60
2023-05-19T04:23:14.703Z,68.10
2023-05-19T04:25:42.218Z,68.10
2023-05-19T04:28:09.304Z,68.30
2023-05-19T04:30:38.839Z,68.40
2023-05-19T04:33:05.904Z,68.40
2023-05-19T04:35:33.541Z,68.20
2023-05-19T04:38:01.869Z,68.20
2023-05-19T04:40:32.278Z,68.00
2023-05-19T04:43:02.188Z,67.90
2023-05-19T04:45:30.175Z,67.90
2023-05-19T04:48:00.211Z,67.70
2023-05-19T04:50:28.692Z,67.50
2023-05-19T04:52:59.060Z,67.50
2023-05-19T04:55:26.789Z,67.60
2023-05-19T04:57:54.118Z,67.50
2023-05-19T05:00:22.242Z,67.60
2023-05-19T05:02:57.558Z,67.70
2023-05-19T05:05:26.148Z,67.70
2023-05-19T05:07:54.259Z,67.80
2023-05-19T05:10:23.279Z,68.10
2023-05-19T05:12:50.462Z,68.00
2023-05-19T05:15:17.552Z,68.60
2023-05-19T05:17:47.831Z,68.60
2023-05-19T05:20:15.332Z,68.70
2023-05-19T05:22:42.613Z,68.20
2023-05-19T05:25:10.393Z,67.90
2023-05-19T05:27:38.508Z,67.90
2023-05-19T05:30:07.888Z,67.90
2023-05-19T05:32:34.922Z,67.60
2023-05-19T05:35:06.395Z,67.70
2023-05-19T05:37:33.628Z,67.80
2023-05-19T05:40:00.521Z,67.80
2023-05-19T05:42:29.707Z,67.90
2023-05-19T05:44:57.388Z,68.90
2023-05-19T05:47:25.372Z,68.00
2023-05-19T05:49:53.557Z,68.30
2023-05-19T05:52:21.896Z,68.60
2023-05-19T05:54:49.565Z,68.20
2023-05-19T05:57:19.145Z,67.70
2023-05-19T05:59:47.175Z,67.90
2023-05-19T06:02:14.931Z,68.10
2023-05-19T06:04:41.892Z,68.80
2023-05-19T06:07:09.166Z,69.30
2023-05-19T06:09:38.360Z,69.90
2023-05-19T06:12:07.222Z,70.10
2023-05-19T06:14:39.877Z,70.30
2023-05-19T06:17:16.524Z,70.40
2023-05-19T06:19:43.844Z,69.60
2023-05-19T06:22:10.827Z,69.40
2023-05-19T06:24:39.464Z,68.70
2023-05-19T06:27:08.918Z,68.80
2023-05-19T06:29:35.876Z,68.50
2023-05-19T06:32:05.851Z,68.40
2023-05-19T06:34:32.838Z,68.30
2023-05-19T06:36:59.692Z,67.90
2023-05-19T06:39:26.903Z,67.30
2023-05-19T06:41:54.608Z,66.80
2023-05-19T06:44:44.021Z,66.70
2023-05-19T06:47:12.273Z,66.70
2023-05-19T06:49:39.502Z,66.70
2023-05-19T06:52:07.331Z,66.40
2023-05-19T06:54:34.427Z,65.90
2023-05-19T06:57:02.338Z,67.00
2023-05-19T06:59:29.354Z,66.10
2023-05-19T07:01:56.687Z,65.60
2023-05-19T07:04:23.789Z,65.50
2023-05-19T07:06:50.655Z,65.70
2023-05-19T07:09:18.353Z,65.90
2023-05-19T07:11:47.062Z,65.40
2023-05-19T07:14:14.000Z,65.00
2023-05-19T07:16:41.408Z,65.20
2023-05-19T07:19:08.580Z,64.90
2023-05-19T07:21:35.860Z,64.70
2023-05-19T07:24:02.692Z,64.60
2023-05-19T07:26:29.588Z,64.30
2023-05-19T07:28:57.813Z,63.80
2023-05-19T07:31:24.884Z,63.20
2023-05-19T07:33:54.361Z,62.70
2023-05-19T07:36:21.737Z,62.00
2023-05-19T07:38:48.819Z,61.60
2023-05-19T07:41:16.713Z,61.60
2023-05-19T07:43:43.695Z,61.20
2023-05-19T07:46:10.719Z,60.70
2023-05-19T07:48:37.663Z,60.70
2023-05-19T07:51:04.755Z,60.50
2023-05-19T07:53:31.725Z,60.10
2023-05-19T07:55:58.946Z,59.60
2023-05-19T07:58:27.169Z,60.40
2023-05-19T08:00:56.716Z,59.70
2023-05-19T08:03:23.983Z,59.10
2023-05-19T08:05:51.150Z,59.20
2023-05-19T08:08:19.688Z,59.50
2023-05-19T08:10:46.862Z,58.70
2023-05-19T08:13:13.865Z,58.60
2023-05-19T08:15:41.386Z,58.30
2023-05-19T08:18:08.682Z,57.90
2023-05-19T08:20:35.863Z,57.00
2023-05-19T08:23:03.116Z,56.40
2023-05-19T08:25:30.135Z,55.90
2023-05-19T08:27:57.093Z,55.30
2023-05-19T08:30:24.332Z,56.10
2023-05-19T08:32:51.900Z,55.90
2023-05-19T08:35:18.915Z,55.90
2023-05-19T08:37:46.031Z,56.00
2023-05-19T08:40:18.392Z,55.40
2023-05-19T08:42:46.008Z,55.20
2023-05-19T08:45:13.695Z,54.30
2023-05-19T08:47:47.134Z,54.40
2023-05-19T08:50:21.359Z,55.40
2023-05-19T08:52:53.752Z,55.60
2023-05-19T08:55:41.157Z,55.30
2023-05-19T08:58:09.850Z,55.60
2023-05-19T09:00:37.441Z,56.50
2023-05-19T09:03:17.724Z,56.10
2023-05-19T09:05:46.562Z,56.20
2023-05-19T09:08:13.874Z,56.10
2023-05-19T09:10:40.990Z,55.80
2023-05-19T09:13:08.131Z,56.10
2023-05-19T09:15:36.805Z,56.10
2023-05-19T09:18:10.933Z,56.30
2023-05-19T09:20:41.636Z,57.20
2023-05-19T09:23:13.683Z,57.30
2023-05-19T09:25:53.155Z,57.30
2023-05-19T09:28:30.673Z,57.50
2023-05-19T09:31:01.164Z,57.70
2023-05-19T09:33:28.683Z,58.00
2023-05-19T09:35:59.119Z,58.30
2023-05-19T09:38:29.408Z,58.40
2023-05-19T09:40:57.650Z,58.30
2023-05-19T09:43:24.583Z,58.40
2023-05-19T09:46:03.778Z,58.10
2023-05-19T09:48:30.878Z,58.30
2023-05-19T09:50:58.277Z,58.50
2023-05-19T09:53:25.601Z,58.70
2023-05-19T09:55:59.474Z,58.70
2023-05-19T09:58:27.107Z,58.70
2023-05-19T10:00:54.894Z,58.90
2023-05-19T10:03:26.366Z,59.10
2023-05-19T10:05:54.793Z,59.10
2023-05-19T10:08:24.515Z,59.30
2023-05-19T10:10:51.660Z,59.00
2023-05-19T10:13:19.562Z,58.60
2023-05-19T10:15:57.959Z,58.60
2023-05-19T10:18:27.521Z,58.40
2023-05-19T10:20:54.821Z,58.00
2023-05-19T10:23:22.534Z,57.80
2023-05-19T10:25:52.484Z,57.60
2023-05-19T10:28:23.631Z,57.40
2023-05-19T10:30:54.291Z,56.90
2023-05-19T10:33:28.923Z,56.90
2023-05-19T10:36:18.344Z,56.60
2023-05-19T10:39:05.564Z,56.50
2023-05-19T10:42:01.166Z,56.10
2023-05-19T10:45:05.552Z,56.10
2023-05-19T10:47:36.150Z,55.90
2023-05-19T10:50:06.687Z,56.20
2023-05-19T10:52:37.778Z,55.40
2023-05-19T10:55:08.729Z,54.50
2023-05-19T10:57:36.796Z,54.10
2023-05-19T11:00:25.624Z,53.50
2023-05-19T11:02:56.474Z,53.40
2023-05-19T11:05:30.153Z,53.70
2023-05-19T11:08:05.785Z,53.20
2023-05-19T11:10:32.960Z,53.00
2023-05-19T11:13:00.578Z,53.00
2023-05-19T11:15:28.516Z,53.20
2023-05-19T11:17:55.464Z,53.90
2023-05-19T11:20:26.498Z,54.10
2023-05-19T11:23:06.389Z,55.20
2023-05-19T11:25:49.673Z,56.00
2023-05-19T11:28:20.763Z,57.10
2023-05-19T11:30:50.713Z,57.10
2023-05-19T11:33:21.566Z,57.80
2023-05-19T11:35:50.411Z,58.00
2023-05-19T11:38:19.149Z,58.00
2023-05-19T11:40:48.163Z,57.80
2023-05-19T11:43:16.248Z,58.40
2023-05-19T11:45:43.348Z,58.40
2023-05-19T11:48:13.449Z,58.70
2023-05-19T11:50:44.234Z,58.90
2023-05-19T11:53:15.198Z,59.50
2023-05-19T11:55:44.589Z,59.80
2023-05-19T11:58:11.601Z,59.70
2023-05-19T12:00:41.267Z,60.40
2023-05-19T12:03:09.423Z,59.90
2023-05-19T12:05:45.479Z,60.40
2023-05-19T12:08:13.167Z,61.00
2023-05-19T12:10:41.020Z,62.20
2023-05-19T12:13:11.337Z,63.00
2023-05-19T12:15:39.034Z,64.00
2023-05-19T12:18:06.822Z,64.00
2023-05-19T12:20:36.144Z,63.80
2023-05-19T12:23:04.256Z,63.70
2023-05-19T12:25:32.255Z,63.90
2023-05-19T12:28:02.826Z,64.90
2023-05-19T12:30:31.586Z,64.60
2023-05-19T12:32:58.908Z,63.60
2023-05-19T12:35:37.771Z,63.90
2023-05-19T12:38:07.791Z,63.30
2023-05-19T12:40:36.217Z,63.90
2023-05-19T12:43:04.049Z,64.00
2023-05-19T12:45:39.860Z,64.10
2023-05-19T12:48:12.282Z,64.70
2023-05-19T12:50:39.719Z,64.90
2023-05-19T12:53:10.644Z,64.90
2023-05-19T12:55:43.022Z,65.50
2023-05-19T12:58:11.625Z,65.50
2023-05-19T13:00:43.752Z,65.50
2023-05-19T13:03:22.214Z,65.60
2023-05-19T13:05:51.291Z,65.80
2023-05-19T13:08:20.642Z,66.20
2023-05-19T13:10:49.229Z,66.10
2023-05-19T13:13:17.149Z,65.60
2023-05-19T13:15:45.788Z,65.70
2023-05-19T13:18:13.812Z,65.90
2023-05-19T13:20:42.632Z,65.90
2023-05-19T13:23:14.038Z,65.70
2023-05-19T13:25:42.108Z,65.90
2023-05-19T13:28:09.372Z,66.10
2023-05-19T13:30:38.639Z,67.40
2023-05-19T13:33:06.261Z,68.10
2023-05-19T13:35:39.532Z,68.10
2023-05-19T13:38:07.923Z,68.40
2023-05-19T13:40:35.473Z,69.00
2023-05-19T13:43:04.136Z,69.30
2023-05-19T13:45:31.476Z,69.70
2023-05-19T13:47:58.541Z,70.80
2023-05-19T13:50:25.980Z,70.30
2023-05-19T13:52:53.835Z,69.50
2023-05-19T13:55:21.074Z,69.30
2023-05-19T13:57:48.886Z,69.50
2023-05-19T14:00:17.650Z,70.00
2023-05-19T14:02:44.818Z,70.10
2023-05-19T14:05:11.878Z,70.10
2023-05-19T14:07:38.909Z,70.20
2023-05-19T14:10:06.945Z,70.50
2023-05-19T14:12:46.993Z,70.80
2023-05-19T14:15:22.749Z,70.70
2023-05-19T14:17:49.776Z,71.40
2023-05-19T14:20:16.806Z,71.30
2023-05-19T14:22:43.796Z,71.60
2023-05-19T14:25:11.018Z,72.40
2023-05-19T14:27:39.967Z,72.50
2023-05-19T14:30:08.151Z,72.80
2023-05-19T14:32:35.343Z,73.30
2023-05-19T14:35:02.642Z,73.20
2023-05-19T14:37:31.734Z,72.80
2023-05-19T14:39:59.261Z,73.00
2023-05-19T14:42:26.288Z,73.20
2023-05-19T14:44:53.330Z,73.80
2023-05-19T14:47:20.298Z,73.70
2023-05-19T14:49:47.427Z,73.60
2023-05-19T14:52:14.397Z,78.10
2023-05-19T14:54:41.332Z,81.50
2023-05-19T14:57:08.342Z,82.30
2023-05-19T14:59:38.676Z,83.90
2023-05-19T15:02:06.114Z,85.40
2023-05-19T15:04:33.097Z,85.80
2023-05-19T15:09:29.886Z,87.40
2023-05-19T15:11:58.800Z,88.20
2023-05-19T15:14:27.136Z,88.60
2023-05-19T15:16:54.886Z,89.30
2023-05-19T15:19:22.036Z,89.90
2023-05-19T15:21:50.630Z,90.40
2023-05-19T15:24:17.668Z,91.30
2023-05-19T15:26:45.339Z,91.90
2023-05-19T15:29:12.330Z,92.70
2023-05-19T15:31:39.362Z,93.80
2023-05-19T15:34:06.456Z,94.40
2023-05-19T15:36:33.405Z,95.60
2023-05-19T15:39:00.422Z,96.20
2023-05-19T15:41:27.438Z,96.70
2023-05-19T15:43:54.454Z,97.10
2023-05-19T15:46:21.568Z,97.70
2023-05-19T15:48:48.596Z,98.30
2023-05-19T15:51:15.940Z,99.20
2023-05-19T15:53:42.986Z,99.60
2023-05-19T15:56:10.120Z,99.90
2023-05-19T15:58:37.112Z,99.90
2023-05-19T16:01:04.253Z,99.90
2023-05-19T16:03:32.330Z,99.90
2023-05-19T16:05:59.551Z,99.90
2023-05-19T16:08:27.032Z,99.90
2023-05-19T16:10:55.184Z,99.90
2023-05-19T16:13:22.470Z,99.90
2023-05-19T16:15:49.511Z,99.90
2023-05-19T16:18:16.711Z,99.90
2023-05-19T16:20:44.199Z,99.90
2023-05-19T16:23:11.206Z,99.90
2023-05-19T16:25:38.248Z,99.90
2023-05-19T16:28:05.705Z,99.90
2023-05-19T16:30:32.969Z,99.90
2023-05-19T16:33:00.197Z,99.90
2023-05-19T16:35:30.218Z,99.90
2023-05-19T16:37:57.196Z,99.90
2023-05-19T16:40:24.323Z,99.90
2023-05-19T16:42:53.413Z,99.90
2023-05-19T16:45:20.512Z,99.90
2023-05-19T16:47:47.590Z,99.90
2023-05-19T16:50:14.716Z,99.90
2023-05-19T16:52:41.697Z,99.90
2023-05-19T16:55:09.065Z,99.90
2023-05-19T16:57:35.996Z,99.90
2023-05-19T17:00:03.719Z,99.90
2023-05-19T17:02:30.976Z,99.90
2023-05-19T17:04:58.019Z,99.90
2023-05-19T17:07:25.065Z,99.90
2023-05-19T17:09:53.948Z,99.90
2023-05-19T17:12:22.918Z,99.90
2023-05-19T17:14:52.079Z,99.90
2023-05-19T17:17:19.206Z,99.90
2023-05-19T17:19:46.820Z,99.90
2023-05-19T17:22:13.902Z,99.90
2023-05-19T17:24:42.421Z,99.90
2023-05-19T17:27:09.349Z,99.90
2023-05-19T17:29:36.879Z,99.90
2023-05-19T17:32:04.464Z,99.90
2023-05-19T17:34:31.460Z,99.90
2023-05-19T17:36:58.412Z,99.90
2023-05-19T17:39:25.599Z,99.90
2023-05-19T17:41:52.590Z,99.90
2023-05-19T17:44:20.427Z,99.90
2023-05-19T17:46:47.464Z,99.90
2023-05-19T17:49:15.312Z,99.90
2023-05-19T17:51:42.625Z,99.90
2023-05-19T17:54:09.710Z,99.90
2023-05-19T17:56:42.480Z,99.90
2023-05-19T17:59:09.777Z,99.90
2023-05-19T18:01:37.114Z,99.90
2023-05-19T18:04:04.498Z,99.90
2023-05-19T18:06:32.220Z,99.90
2023-05-19T18:09:00.970Z,99.90
2023-05-19T18:11:28.269Z,99.90
2023-05-19T18:13:55.304Z,99.90
2023-05-19T18:16:22.324Z,99.90
2023-05-19T18:18:50.624Z,99.90
2023-05-19T18:21:18.097Z,99.90
2023-05-19T18:23:45.780Z,99.90
2023-05-19T18:26:13.658Z,99.90
2023-05-19T18:28:41.769Z,99.90
2023-05-19T18:31:10.982Z,99.90
2023-05-19T18:33:37.922Z,99.90
2023-05-19T18:36:05.035Z,99.90
2023-05-19T18:38:31.982Z,99.90
2023-05-19T18:41:00.742Z,99.90
2023-05-19T18:43:30.120Z,99.90
2023-05-19T18:45:57.249Z,99.90
2023-05-19T18:48:25.647Z,99.90
2023-05-19T18:50:52.650Z,99.90
2023-05-19T18:53:22.664Z,99.90
2023-05-19T18:55:49.761Z,99.90
2023-05-19T18:58:20.352Z,99.90
2023-05-19T19:00:47.463Z,99.90
2023-05-19T19:03:15.028Z,99.90
2023-05-19T19:05:42.158Z,99.90
2023-05-19T19:08:09.152Z,99.90
2023-05-19T19:10:39.120Z,99.90
2023-05-19T19:13:06.616Z,99.90
2023-05-19T19:15:33.560Z,99.90
2023-05-19T19:18:00.609Z,99.90
2023-05-19T19:20:27.708Z,99.90
2023-05-19T19:22:54.742Z,99.90
2023-05-19T19:25:23.569Z,99.90
2023-05-19T19:27:51.227Z,99.90
2023-05-19T19:30:18.401Z,99.90
2023-05-19T19:32:45.749Z,99.90
2023-05-19T19:35:12.806Z,99.90
2023-05-19T19:37:39.739Z,99.90
2023-05-19T19:40:07.248Z,99.90
2023-05-19T19:42:34.350Z,99.90
2023-05-19T19:45:01.358Z,99.90
2023-05-19T19:47:28.353Z,99.90
2023-05-19T19:49:55.983Z,99.90
2023-05-19T19:52:22.953Z,99.90
2023-05-19T19:54:49.890Z,99.90
2023-05-19T19:57:17.764Z,99.90
2023-05-19T19:59:44.885Z,99.90
2023-05-19T20:02:11.915Z,99.90
2023-05-19T20:04:39.093Z,99.90
2023-05-19T20:07:06.682Z,99.90
2023-05-19T20:09:33.613Z,99.90
2023-05-19T20:12:00.877Z,99.90
2023-05-19T20:14:27.821Z,99.90
2023-05-19T20:16:54.822Z,99.90
2023-05-19T20:19:27.762Z,99.90
2023-05-19T20:21:54.890Z,99.90
2023-05-19T20:24:21.871Z,99.90
2023-05-19T20:26:48.813Z,99.90
2023-05-19T20:29:15.985Z,99.90
2023-05-19T20:31:42.984Z,99.90
2023-05-19T20:34:09.942Z,99.90
2023-05-19T20:36:36.928Z,99.90
2023-05-19T20:39:04.001Z,99.90
2023-05-19T20:41:31.594Z,99.90
2023-05-19T20:43:58.624Z,99.90
2023-05-19T20:46:25.703Z,99.90
2023-05-19T20:48:52.664Z,99.90
2023-05-19T20:51:19.731Z,99.90
2023-05-19T20:53:46.648Z,99.90
2023-05-19T20:56:14.035Z,99.90
2023-05-19T20:58:41.155Z,99.90
2023-05-19T21:01:09.240Z,99.90
2023-05-19T21:03:36.490Z,99.90
2023-05-19T21:06:03.601Z,99.90
2023-05-19T21:08:30.593Z,99.90
2023-05-19T21:10:57.583Z,99.90
2023-05-19T21:13:24.591Z,99.90
2023-05-19T21:15:51.556Z,99.90
2023-05-19T21:18:18.490Z,99.90
2023-05-19T21:20:45.490Z,99.90
2023-05-19T21:23:12.470Z,99.90
2023-05-19T21:25:39.979Z,99.90
2023-05-19T21:28:06.946Z,99.90
2023-05-19T21:30:34.072Z,99.90
2023-05-19T21:33:01.214Z,99.90
2023-05-19T21:35:28.210Z,99.90
2023-05-19T21:37:55.780Z,99.90
2023-05-19T21:40:22.894Z,99.90
2023-05-19T21:42:49.896Z,99.90
2023-05-19T21:45:16.860Z,99.90
2023-05-19T21:47:43.827Z,99.90
2023-05-19T21:50:11.099Z,99.90
2023-05-19T21:52:38.616Z,99.90
2023-05-19T21:55:06.212Z,99.90
2023-05-19T21:57:33.229Z,99.90
2023-05-19T22:00:00.184Z,99.90
2023-05-19T22:02:27.323Z,99.90
2023-05-19T22:04:54.300Z,99.90
2023-05-19T22:07:26.798Z,99.90
2023-05-19T22:09:54.140Z,99.90
2023-05-19T22:12:21.238Z,99.90
2023-05-19T22:14:48.208Z,99.90
2023-05-19T22:17:15.452Z,99.90
2023-05-19T22:19:42.374Z,99.90
2023-05-19T22:22:14.232Z,98.40
2023-05-19T22:24:42.711Z,97.70
2023-05-19T22:27:09.783Z,97.20
2023-05-19T22:29:38.631Z,96.50
2023-05-19T22:32:09.208Z,95.50
2023-05-19T22:34:36.278Z,95.00
2023-05-19T22:37:03.328Z,94.40
2023-05-19T22:39:30.298Z,93.80
2023-05-19T22:41:57.234Z,93.60
2023-05-19T22:44:24.202Z,93.20
2023-05-19T22:46:51.156Z,92.60
2023-05-19T22:49:18.113Z,91.30
2023-05-19T22:51:45.105Z,91.00
2023-05-19T22:54:12.082Z,90.70
2023-05-19T22:56:39.053Z,90.70
2023-05-19T22:59:06.218Z,90.30
2023-05-19T23:01:33.202Z,90.00
2023-05-19T23:04:00.286Z,90.10
2023-05-19T23:06:27.266Z,90.00
2023-05-19T23:09:05.351Z,90.20
2023-05-19T23:11:32.297Z,90.30
2023-05-19T23:13:59.349Z,90.60
2023-05-19T23:16:26.422Z,90.60
2023-05-19T23:18:53.494Z,90.50
2023-05-19T23:21:20.539Z,90.50
2023-05-19T23:23:47.575Z,90.40
2023-05-19T23:26:14.507Z,90.30
2023-05-19T23:28:44.889Z,90.00
2023-05-19T23:31:11.848Z,89.90
2023-05-19T23:33:38.956Z,89.00
2023-05-19T23:36:10.589Z,88.40
2023-05-19T23:38:37.852Z,87.40
2023-05-19T23:41:05.221Z,86.60
2023-05-19T23:43:35.500Z,86.20
2023-05-19T23:46:02.594Z,86.10
2023-05-19T23:48:30.048Z,86.00
2023-05-19T23:50:58.190Z,85.20
2023-05-19T23:53:25.336Z,85.20
2023-05-19T23:55:52.531Z,85.40
2023-05-19T23:58:19.535Z,85.10
